createdAt,value
2023-04-10T00:01:23.886Z,96.30
2023-04-10T00:06:28.380Z,98.43
2023-04-10T00:11:31.068Z,160.37
2023-04-10T00:16:33.911Z,203.80
2023-04-10T00:21:36.513Z,198.27
2023-04-10T00:26:39.116Z,213.67
2023-04-10T00:31:41.812Z,212.27
2023-04-10T00:36:45.472Z,212.97
2023-04-10T00:41:48.068Z,124.30
2023-04-10T00:46:51.643Z,107.00
2023-04-10T00:51:56.639Z,94.63
2023-04-10T00:57:01.398Z,156.93
2023-04-10T01:02:04.656Z,197.00
2023-04-10T01:07:29.894Z,203.20
2023-04-10T01:12:51.610Z,187.67
2023-04-10T01:18:14.718Z,85.90
2023-04-10T01:23:28.220Z,140.47
2023-04-10T01:28:54.670Z,146.77
2023-04-10T01:34:08.568Z,87.80
2023-04-10T01:39:12.350Z,201.40
2023-04-10T01:44:16.408Z,212.40
2023-04-10T01:49:20.807Z,100.13
2023-04-10T01:54:24.333Z,87.20
2023-04-10T01:59:27.639Z,87.83
2023-04-10T02:04:30.815Z,143.17
2023-04-10T02:09:52.014Z,197.77
2023-04-10T02:14:56.524Z,92.97
2023-04-10T02:20:00.226Z,106.53
2023-04-10T02:25:06.377Z,193.70
2023-04-10T02:30:09.555Z,216.30
2023-04-10T02:35:12.251Z,220.87
2023-04-10T02:40:15.010Z,223.77
2023-04-10T02:45:33.408Z,174.80
2023-04-10T02:50:36.101Z,213.70
2023-04-10T02:55:38.834Z,216.73
2023-04-10T03:00:41.896Z,211.27
2023-04-10T03:05:52.064Z,91.23
2023-04-10T03:11:00.660Z,148.83
2023-04-10T03:16:04.731Z,198.53
2023-04-10T03:21:07.721Z,211.30
2023-04-10T03:26:10.360Z,213.00
2023-04-10T03:31:14.425Z,222.47
2023-04-10T03:36:19.624Z,83.50
2023-04-10T03:41:25.650Z,83.63
2023-04-10T03:46:28.676Z,93.77
2023-04-10T03:51:31.810Z,169.03
2023-04-10T03:56:34.486Z,204.03
2023-04-10T04:01:37.534Z,208.73
2023-04-10T04:06:45.323Z,231.30
2023-04-10T04:12:05.936Z,211.50
2023-04-10T04:17:25.227Z,93.47
2023-04-10T04:22:32.713Z,185.40
2023-04-10T04:27:42.628Z,211.43
2023-04-10T04:33:03.609Z,195.27
2023-04-10T04:38:26.676Z,94.23
2023-04-10T04:43:44.785Z,217.43
2023-04-10T04:49:00.231Z,122.87
2023-04-10T04:54:10.721Z,211.67
2023-04-10T04:59:25.423Z,90.13
2023-04-10T05:05:00.606Z,97.40
2023-04-10T05:10:17.382Z,210.80
2023-04-10T05:15:45.598Z,225.37
2023-04-10T05:21:12.878Z,228.67
2023-04-10T05:26:47.947Z,213.67
2023-04-10T05:32:05.837Z,216.27
2023-04-10T05:37:34.592Z,207.63
2023-04-10T05:42:58.055Z,102.90
2023-04-10T05:48:07.638Z,220.77
2023-04-10T05:53:22.148Z,108.70
2023-04-10T05:58:54.303Z,106.57
2023-04-10T06:04:14.656Z,229.67
2023-04-10T06:09:17.770Z,217.97
2023-04-10T06:14:21.241Z,130.03
2023-04-10T06:19:24.042Z,114.07
2023-04-10T06:24:27.102Z,111.73
2023-04-10T06:29:31.046Z,130.17
2023-04-10T06:34:34.182Z,201.87
2023-04-10T06:39:40.478Z,232.47
2023-04-10T06:44:44.581Z,236.73
2023-04-10T06:49:47.088Z,244.93
2023-04-10T06:54:49.734Z,192.00
2023-04-10T06:59:52.532Z,109.53
2023-04-10T07:04:57.086Z,109.83
2023-04-10T07:10:00.639Z,119.00
2023-04-10T07:15:03.388Z,175.07
2023-04-10T07:20:06.769Z,230.37
2023-04-10T07:25:09.857Z,249.53
2023-04-10T07:30:13.724Z,259.53
2023-04-10T07:35:17.139Z,262.90
2023-04-10T07:40:19.747Z,214.83
2023-04-10T07:45:22.591Z,157.93
2023-04-10T07:50:25.232Z,152.77
2023-04-10T07:55:28.129Z,157.20
2023-04-10T08:00:30.943Z,167.67
2023-04-10T08:05:33.856Z,229.20
2023-04-10T08:10:39.758Z,272.60
2023-04-10T08:15:42.482Z,284.40
2023-04-10T08:20:45.352Z,284.53
2023-04-10T08:25:48.028Z,298.73
2023-04-10T08:30:50.727Z,206.83
2023-04-10T08:35:53.497Z,168.17
2023-04-10T08:40:56.301Z,162.77
2023-04-10T08:46:02.830Z,201.57
2023-04-10T08:51:10.702Z,272.40
2023-04-10T08:56:18.152Z,298.80
2023-04-10T09:01:23.061Z,214.80
2023-04-10T09:06:26.084Z,182.20
2023-04-10T09:11:56.749Z,182.43
2023-04-10T09:17:19.056Z,191.10
2023-04-10T09:22:36.525Z,222.10
2023-04-10T09:27:40.360Z,319.93
2023-04-10T09:32:45.856Z,331.63
2023-04-10T09:37:48.454Z,323.63
2023-04-10T09:42:51.420Z,249.67
2023-04-10T09:48:29.820Z,234.07
2023-04-10T09:53:50.350Z,323.13
2023-04-10T09:58:56.954Z,278.27
2023-04-10T10:04:06.774Z,283.23
2023-04-10T10:09:11.450Z,394.30
2023-04-10T10:14:29.621Z,308.17
2023-04-10T10:19:38.907Z,325.97
2023-04-10T10:24:57.109Z,409.40
2023-04-10T10:30:30.370Z,398.23
2023-04-10T10:35:38.030Z,337.37
2023-04-10T10:40:54.991Z,414.70
2023-04-10T10:46:02.255Z,306.27
2023-04-10T10:51:05.058Z,382.87
2023-04-10T10:56:28.582Z,402.27
2023-04-10T11:01:31.974Z,296.83
2023-04-10T11:06:53.435Z,352.53
2023-04-10T11:11:59.572Z,271.47
2023-04-10T11:17:02.373Z,300.40
2023-04-10T11:22:08.332Z,382.63
2023-04-10T11:27:40.688Z,432.60
2023-04-10T11:32:45.455Z,443.43
2023-04-10T11:37:48.149Z,468.13
2023-04-10T11:42:50.709Z,428.70
2023-04-10T11:47:54.571Z,713.53
2023-04-10T11:52:57.500Z,747.00
2023-04-10T11:58:00.808Z,487.67
2023-04-10T12:03:03.675Z,525.23
2023-04-10T12:08:06.944Z,530.90
2023-04-10T12:13:26.152Z,517.13
2023-04-10T12:18:30.896Z,406.33
2023-04-10T12:23:34.133Z,419.60
2023-04-10T12:28:38.148Z,453.13
2023-04-10T12:33:44.095Z,456.27
2023-04-10T12:38:46.899Z,449.73
2023-04-10T12:43:49.893Z,414.77
2023-04-10T12:48:53.165Z,316.20
2023-04-10T12:53:56.008Z,263.83
2023-04-10T12:59:08.301Z,253.93
2023-04-10T13:04:11.483Z,368.93
2023-04-10T13:09:15.209Z,372.83
2023-04-10T13:14:18.030Z,372.20
2023-04-10T13:19:20.832Z,349.37
2023-04-10T13:24:23.686Z,266.90
2023-04-10T13:29:26.609Z,284.10
2023-04-10T13:34:29.431Z,274.43
2023-04-10T13:39:32.689Z,265.70
2023-04-10T13:44:35.281Z,318.20
2023-04-10T13:49:38.356Z,366.10
2023-04-10T13:54:41.255Z,377.33
2023-04-10T13:59:43.905Z,377.47
2023-04-10T14:04:47.670Z,388.63
2023-04-10T14:09:50.410Z,371.60
2023-04-10T14:14:53.163Z,300.23
2023-04-10T14:19:55.993Z,257.57
2023-04-10T14:25:09.319Z,259.67
2023-04-10T14:30:15.626Z,379.10
2023-04-10T14:35:18.302Z,368.73
2023-04-10T14:40:21.013Z,342.00
2023-04-10T14:45:23.642Z,268.77
2023-04-10T14:50:26.340Z,269.03
2023-04-10T14:55:32.434Z,254.10
2023-04-10T15:00:35.823Z,330.17
2023-04-10T15:05:38.562Z,364.97
2023-04-10T15:10:42.484Z,364.53
2023-04-10T15:15:45.866Z,380.40
2023-04-10T15:20:48.476Z,369.67
2023-04-10T15:25:51.438Z,319.07
2023-04-10T15:35:58.072Z,259.40
2023-04-10T15:41:01.182Z,254.03
2023-04-10T15:46:04.378Z,289.53
2023-04-10T15:51:07.801Z,338.00
2023-04-10T15:56:10.493Z,361.53
2023-04-10T16:01:13.249Z,346.23
2023-04-10T16:06:16.558Z,348.33
2023-04-10T16:11:19.526Z,357.00
2023-04-10T16:16:22.485Z,265.50
2023-04-10T16:21:25.127Z,213.07
2023-04-10T16:26:27.799Z,224.47
2023-04-10T16:31:33.522Z,236.10
2023-04-10T16:36:36.263Z,336.27
2023-04-10T16:41:39.000Z,339.07
2023-04-10T16:46:41.688Z,324.60
2023-04-10T16:51:44.373Z,323.63
2023-04-10T16:56:47.138Z,327.00
2023-04-10T17:01:51.633Z,340.07
2023-04-10T17:06:54.256Z,233.20
2023-04-10T17:11:57.939Z,223.70
2023-04-10T17:17:01.046Z,221.37
2023-04-10T17:22:03.738Z,236.53
2023-04-10T17:27:06.419Z,300.40
2023-04-10T17:32:09.447Z,317.37
2023-04-10T17:37:12.361Z,307.33
2023-04-10T17:42:14.947Z,328.33
2023-04-10T17:47:17.676Z,334.53
2023-04-10T17:52:20.368Z,316.77
2023-04-10T17:57:23.093Z,231.20
2023-04-10T18:02:25.943Z,207.20
2023-04-10T18:07:28.934Z,198.57
2023-04-10T18:12:31.957Z,203.63
2023-04-10T18:17:35.534Z,235.57
2023-04-10T18:22:39.165Z,314.43
2023-04-10T18:27:55.307Z,307.73
2023-04-10T18:33:11.056Z,301.33
2023-04-10T18:38:14.358Z,317.60
2023-04-10T18:43:17.012Z,310.53
2023-04-10T18:48:19.646Z,323.47
2023-04-10T18:53:22.745Z,241.07
2023-04-10T18:58:25.551Z,198.17
2023-04-10T19:03:28.611Z,185.53
2023-04-10T19:08:31.572Z,188.13
2023-04-10T19:13:34.874Z,213.57
2023-04-10T19:18:37.468Z,295.33
2023-04-10T19:23:40.176Z,300.27
2023-04-10T19:28:42.795Z,301.00
2023-04-10T19:33:45.439Z,293.70
2023-04-10T19:38:51.246Z,299.30
2023-04-10T19:43:54.350Z,204.57
2023-04-10T19:48:57.181Z,179.17
2023-04-10T19:53:59.879Z,179.67
2023-04-10T19:59:02.854Z,186.57
2023-04-10T20:04:05.705Z,235.30
2023-04-10T20:09:08.443Z,287.63
2023-04-10T20:14:11.433Z,291.93
2023-04-10T20:19:14.109Z,304.03
2023-04-10T20:24:16.753Z,299.20
2023-04-10T20:29:19.422Z,287.93
2023-04-10T20:34:22.216Z,220.67
2023-04-10T20:39:25.050Z,171.03
2023-04-10T20:44:27.705Z,165.73
2023-04-10T20:49:30.652Z,175.70
2023-04-10T20:54:34.048Z,167.27
2023-04-10T20:59:36.893Z,251.67
2023-04-10T21:04:39.447Z,269.30
2023-04-10T21:09:42.065Z,274.73
2023-04-10T21:14:44.744Z,270.40
2023-04-10T21:19:47.462Z,293.20
2023-04-10T21:24:50.110Z,283.53
2023-04-10T21:29:52.897Z,202.50
2023-04-10T21:34:55.477Z,165.27
2023-04-10T21:39:58.262Z,154.27
2023-04-10T21:45:01.557Z,178.10
2023-04-10T21:50:04.487Z,186.30
2023-04-10T21:55:07.983Z,257.63
2023-04-10T22:00:12.587Z,280.30
2023-04-10T22:05:15.228Z,291.63
2023-04-10T22:10:17.973Z,288.67
2023-04-10T22:15:20.753Z,283.50
2023-04-10T22:20:23.311Z,190.10
2023-04-10T22:25:26.100Z,166.07
2023-04-10T22:30:29.004Z,159.67
2023-04-10T22:35:32.893Z,162.33
2023-04-10T22:40:35.930Z,215.33
2023-04-10T22:45:39.862Z,258.90
2023-04-10T22:50:42.521Z,278.03
2023-04-10T22:55:45.134Z,282.60
2023-04-10T23:00:47.665Z,271.87
2023-04-10T23:05:50.841Z,292.03
2023-04-10T23:10:56.629Z,181.87
2023-04-10T23:15:59.375Z,152.23
2023-04-10T23:21:06.650Z,154.57
2023-04-10T23:26:11.641Z,264.43
2023-04-10T23:31:14.657Z,291.33
2023-04-10T23:36:17.339Z,291.87
2023-04-10T23:41:20.417Z,284.40
2023-04-10T23:46:23.029Z,206.30
2023-04-10T23:51:27.222Z,159.87
2023-04-10T23:56:31.364Z,159.17
